sensor_id;sensor_type;location;lat;lon;timestamp;P1;durP1;ratioP1;P2;durP2;ratioP2
2658;SDS011;1339;53.304;10.406;2023-11-18T00:00:39;10.73;;;9.48;;
2658;SDS011;1339;53.304;10.406;2023-11-18T00:03:06;11.00;;;9.88;;
2658;SDS011;1339;53.304;10.406;2023-11-18T00:05:34;13.13;;;11.20;;
2658;SDS011;1339;53.304;10.406;2023-11-18T00:08:01;11.65;;;10.45;;
2658;SDS011;1339;53.304;10.406;2023-11-18T00:10:29;11.77;;;9.90;;
2658;SDS011;1339;53.304;10.406;2023-11-18T00:12:56;12.00;;;10.50;;
2658;SDS011;1339;53.304;10.406;2023-11-18T00:15:23;11.70;;;10.50;;
2658;SDS011;1339;53.304;10.406;2023-11-18T00:17:50;11.32;;;10.20;;
2658;SDS011;1339;53.304;10.406;2023-11-18T00:20:17;13.02;;;11.73;;
2658;SDS011;1339;53.304;10.406;2023-11-18T00:22:45;10.80;;;9.73;;
2658;SDS011;1339;53.304;10.406;2023-11-18T00:25:12;11.75;;;9.98;;
2658;SDS011;1339;53.304;10.406;2023-11-18T00:27:41;11.23;;;10.13;;
2658;SDS011;1339;53.304;10.406;2023-11-18T00:30:08;9.95;;;8.95;;
2658;SDS011;1339;53.304;10.406;2023-11-18T00:32:36;11.95;;;10.77;;
2658;SDS011;1339;53.304;10.406;2023-11-18T00:35:03;10.68;;;9.57;;
2658;SDS011;1339;53.304;10.406;2023-11-18T00:37:30;10.63;;;9.63;;
2658;SDS011;1339;53.304;10.406;2023-11-18T00:39:58;10.70;;;9.07;;
2658;SDS011;1339;53.304;10.406;2023-11-18T00:42:25;10.40;;;9.32;;
2658;SDS011;1339;53.304;10.406;2023-11-18T00:44:53;11.07;;;9.98;;
2658;SDS011;1339;53.304;10.406;2023-11-18T00:47:20;10.63;;;9.68;;
2658;SDS011;1339;53.304;10.406;2023-11-18T00:49:48;11.57;;;10.40;;
2658;SDS011;1339;53.304;10.406;2023-11-18T00:52:17;11.98;;;10.50;;
2658;SDS011;1339;53.304;10.406;2023-11-18T00:54:44;10.40;;;9.40;;
2658;SDS011;1339;53.304;10.406;2023-11-18T00:57:11;9.45;;;8.52;;
2658;SDS011;1339;53.304;10.406;2023-11-18T00:59:41;10.18;;;9.05;;
2658;SDS011;1339;53.304;10.406;2023-11-18T01:02:10;11.13;;;9.90;;
2658;SDS011;1339;53.304;10.406;2023-11-18T01:04:38;10.23;;;9.23;;
2658;SDS011;1339;53.304;10.406;2023-11-18T01:07:05;10.20;;;9.18;;
2658;SDS011;1339;53.304;10.406;2023-11-18T01:09:33;12.40;;;11.15;;
2658;SDS011;1339;53.304;10.406;2023-11-18T01:12:04;12.45;;;11.15;;
2658;SDS011;1339;53.304;10.406;2023-11-18T01:14:34;11.60;;;10.40;;
2658;SDS011;1339;53.304;10.406;2023-11-18T01:17:01;9.70;;;8.48;;
2658;SDS011;1339;53.304;10.406;2023-11-18T01:19:30;8.70;;;7.80;;
2658;SDS011;1339;53.304;10.406;2023-11-18T01:21:57;10.00;;;8.95;;
2658;SDS011;1339;53.304;10.406;2023-11-18T01:24:24;10.65;;;9.55;;
2658;SDS011;1339;53.304;10.406;2023-11-18T01:26:51;10.35;;;9.35;;
2658;SDS011;1339;53.304;10.406;2023-11-18T01:29:18;8.75;;;7.85;;
2658;SDS011;1339;53.304;10.406;2023-11-18T01:31:47;12.10;;;9.38;;
2658;SDS011;1339;53.304;10.406;2023-11-18T01:34:14;10.40;;;9.40;;
2658;SDS011;1339;53.304;10.406;2023-11-18T01:36:43;11.48;;;10.38;;
2658;SDS011;1339;53.304;10.406;2023-11-18T01:39:10;10.13;;;9.13;;
2658;SDS011;1339;53.304;10.406;2023-11-18T01:41:38;10.27;;;9.27;;
2658;SDS011;1339;53.304;10.406;2023-11-18T01:44:05;10.50;;;8.85;;
2658;SDS011;1339;53.304;10.406;2023-11-18T01:46:33;9.60;;;8.60;;
2658;SDS011;1339;53.304;10.406;2023-11-18T01:49:01;10.27;;;8.90;;
2658;SDS011;1339;53.304;10.406;2023-11-18T01:51:29;10.20;;;9.07;;
2658;SDS011;1339;53.304;10.406;2023-11-18T01:53:57;9.30;;;8.38;;
2658;SDS011;1339;53.304;10.406;2023-11-18T01:56:27;10.88;;;9.68;;
2658;SDS011;1339;53.304;10.406;2023-11-18T01:58:54;12.45;;;11.15;;
2658;SDS011;1339;53.304;10.406;2023-11-18T02:01:23;12.20;;;10.90;;
2658;SDS011;1339;53.304;10.406;2023-11-18T02:03:51;12.07;;;10.77;;
2658;SDS011;1339;53.304;10.406;2023-11-18T02:06:19;11.48;;;10.38;;
2658;SDS011;1339;53.304;10.406;2023-11-18T02:08:46;12.55;;;10.75;;
2658;SDS011;1339;53.304;10.406;2023-11-18T02:11:17;11.07;;;9.98;;
2658;SDS011;1339;53.304;10.406;2023-11-18T02:13:45;11.38;;;10.18;;
2658;SDS011;1339;53.304;10.406;2023-11-18T02:16:14;10.52;;;9.52;;
2658;SDS011;1339;53.304;10.406;2023-11-18T02:18:42;10.07;;;9.00;;
2658;SDS011;1339;53.304;10.406;2023-11-18T02:21:09;14.35;;;11.45;;
2658;SDS011;1339;53.304;10.406;2023-11-18T02:23:37;11.32;;;9.38;;
2658;SDS011;1339;53.304;10.406;2023-11-18T02:26:05;13.00;;;10.60;;
2658;SDS011;1339;53.304;10.406;2023-11-18T02:28:32;12.25;;;11.15;;
2658;SDS011;1339;53.304;10.406;2023-11-18T02:31:02;10.55;;;9.55;;
2658;SDS011;1339;53.304;10.406;2023-11-18T02:33:31;11.02;;;9.50;;
2658;SDS011;1339;53.304;10.406;2023-11-18T02:36:04;11.73;;;9.68;;
2658;SDS011;1339;53.304;10.406;2023-11-18T02:38:34;10.05;;;9.25;;
2658;SDS011;1339;53.304;10.406;2023-11-18T02:41:03;11.02;;;9.93;;
2658;SDS011;1339;53.304;10.406;2023-11-18T02:43:35;11.02;;;9.85;;
2658;SDS011;1339;53.304;10.406;2023-11-18T02:46:03;11.57;;;10.38;;
2658;SDS011;1339;53.304;10.406;2023-11-18T02:48:32;11.55;;;10.35;;
2658;SDS011;1339;53.304;10.406;2023-11-18T02:50:59;10.40;;;9.30;;
2658;SDS011;1339;53.304;10.406;2023-11-18T02:53:26;10.88;;;9.35;;
2658;SDS011;1339;53.304;10.406;2023-11-18T02:55:53;10.48;;;9.15;;
2658;SDS011;1339;53.304;10.406;2023-11-18T02:58:27;10.98;;;9.80;;
2658;SDS011;1339;53.304;10.406;2023-11-18T03:00:55;10.77;;;9.68;;
2658;SDS011;1339;53.304;10.406;2023-11-18T03:03:24;10.52;;;9.43;;
2658;SDS011;1339;53.304;10.406;2023-11-18T03:05:52;9.75;;;8.27;;
2658;SDS011;1339;53.304;10.406;2023-11-18T03:08:19;10.63;;;9.55;;
2658;SDS011;1339;53.304;10.406;2023-11-18T03:10:47;11.18;;;10.10;;
2658;SDS011;1339;53.304;10.406;2023-11-18T03:13:17;9.85;;;8.93;;
2658;SDS011;1339;53.304;10.406;2023-11-18T03:15:45;11.38;;;10.18;;
2658;SDS011;1339;53.304;10.406;2023-11-18T03:18:14;10.60;;;9.55;;
2658;SDS011;1339;53.304;10.406;2023-11-18T03:20:41;10.23;;;9.10;;
2658;SDS011;1339;53.304;10.406;2023-11-18T03:23:08;10.02;;;9.00;;
2658;SDS011;1339;53.304;10.406;2023-11-18T03:25:35;10.27;;;9.27;;
2658;SDS011;1339;53.304;10.406;2023-11-18T03:28:03;11.73;;;10.52;;
2658;SDS011;1339;53.304;10.406;2023-11-18T03:30:32;9.15;;;8.25;;
2658;SDS011;1339;53.304;10.406;2023-11-18T03:33:02;10.55;;;9.45;;
2658;SDS011;1339;53.304;10.406;2023-11-18T03:35:30;9.43;;;8.38;;
2658;SDS011;1339;53.304;10.406;2023-11-18T03:37:58;10.88;;;9.77;;
2658;SDS011;1339;53.304;10.406;2023-11-18T03:40:25;9.85;;;8.85;;
2658;SDS011;1339;53.304;10.406;2023-11-18T03:42:54;10.82;;;9.75;;
2658;SDS011;1339;53.304;10.406;2023-11-18T03:45:21;9.35;;;8.38;;
2658;SDS011;1339;53.304;10.406;2023-11-18T03:47:48;10.00;;;9.00;;
2658;SDS011;1339;53.304;10.406;2023-11-18T03:50:16;10.35;;;9.35;;
2658;SDS011;1339;53.304;10.406;2023-11-18T03:52:45;10.48;;;9.43;;
2658;SDS011;1339;53.304;10.406;2023-11-18T03:55:12;10.90;;;9.00;;
2658;SDS011;1339;53.304;10.406;2023-11-18T03:57:39;9.50;;;8.60;;
2658;SDS011;1339;53.304;10.406;2023-11-18T04:00:06;10.13;;;8.90;;
2658;SDS011;1339;53.304;10.406;2023-11-18T04:02:36;8.52;;;7.72;;
2658;SDS011;1339;53.304;10.406;2023-11-18T04:05:05;9.45;;;8.55;;
2658;SDS011;1339;53.304;10.406;2023-11-18T04:07:33;7.93;;;7.13;;
2658;SDS011;1339;53.304;10.406;2023-11-18T04:10:03;9.60;;;8.65;;
2658;SDS011;1339;53.304;10.406;2023-11-18T04:12:31;9.20;;;8.05;;
2658;SDS011;1339;53.304;10.406;2023-11-18T04:14:58;8.95;;;8.00;;
2658;SDS011;1339;53.304;10.406;2023-11-18T04:17:25;9.95;;;9.00;;
2658;SDS011;1339;53.304;10.406;2023-11-18T04:19:53;10.05;;;9.00;;
2658;SDS011;1339;53.304;10.406;2023-11-18T04:22:20;8.90;;;7.90;;
2658;SDS011;1339;53.304;10.406;2023-11-18T04:24:48;10.15;;;8.68;;
2658;SDS011;1339;53.304;10.406;2023-11-18T04:27:16;9.50;;;8.57;;
2658;SDS011;1339;53.304;10.406;2023-11-18T04:29:43;8.25;;;7.25;;
2658;SDS011;1339;53.304;10.406;2023-11-18T04:32:10;9.40;;;8.23;;
2658;SDS011;1339;53.304;10.406;2023-11-18T04:34:39;11.02;;;10.02;;
2658;SDS011;1339;53.304;10.406;2023-11-18T04:37:07;9.35;;;8.45;;
2658;SDS011;1339;53.304;10.406;2023-11-18T04:39:34;8.43;;;7.50;;
2658;SDS011;1339;53.304;10.406;2023-11-18T04:42:02;10.95;;;9.73;;
2658;SDS011;1339;53.304;10.406;2023-11-18T04:44:31;9.18;;;8.20;;
2658;SDS011;1339;53.304;10.406;2023-11-18T04:46:58;8.73;;;7.80;;
2658;SDS011;1339;53.304;10.406;2023-11-18T04:49:26;9.90;;;8.38;;
2658;SDS011;1339;53.304;10.406;2023-11-18T04:51:53;8.25;;;7.45;;
2658;SDS011;1339;53.304;10.406;2023-11-18T04:54:20;13.20;;;9.02;;
2658;SDS011;1339;53.304;10.406;2023-11-18T04:56:47;10.77;;;8.18;;
2658;SDS011;1339;53.304;10.406;2023-11-18T04:59:14;9.45;;;8.60;;
2658;SDS011;1339;53.304;10.406;2023-11-18T05:01:44;9.52;;;8.50;;
2658;SDS011;1339;53.304;10.406;2023-11-18T05:04:11;8.52;;;7.72;;
2658;SDS011;1339;53.304;10.406;2023-11-18T05:06:38;8.77;;;7.57;;
2658;SDS011;1339;53.304;10.406;2023-11-18T05:09:05;12.10;;;8.18;;
2658;SDS011;1339;53.304;10.406;2023-11-18T05:11:33;9.32;;;8.10;;
2658;SDS011;1339;53.304;10.406;2023-11-18T05:14:00;9.90;;;8.30;;
2658;SDS011;1339;53.304;10.406;2023-11-18T05:16:29;8.45;;;7.53;;
2658;SDS011;1339;53.304;10.406;2023-11-18T05:18:57;9.60;;;8.70;;
2658;SDS011;1339;53.304;10.406;2023-11-18T05:21:24;8.25;;;7.55;;
2658;SDS011;1339;53.304;10.406;2023-11-18T05:23:51;9.70;;;8.82;;
2658;SDS011;1339;53.304;10.406;2023-11-18T05:26:18;10.45;;;7.85;;
2658;SDS011;1339;53.304;10.406;2023-11-18T05:28:45;11.93;;;8.57;;
2658;SDS011;1339;53.304;10.406;2023-11-18T05:31:14;9.90;;;8.90;;
2658;SDS011;1339;53.304;10.406;2023-11-18T05:33:41;9.45;;;8.30;;
2658;SDS011;1339;53.304;10.406;2023-11-18T05:36:10;8.77;;;7.88;;
2658;SDS011;1339;53.304;10.406;2023-11-18T05:38:37;8.38;;;7.50;;
2658;SDS011;1339;53.304;10.406;2023-11-18T05:41:04;8.38;;;7.50;;
2658;SDS011;1339;53.304;10.406;2023-11-18T05:43:41;10.77;;;8.90;;
2658;SDS011;1339;53.304;10.406;2023-11-18T05:46:16;9.10;;;7.90;;
2658;SDS011;1339;53.304;10.406;2023-11-18T05:48:45;9.80;;;8.20;;
2658;SDS011;1339;53.304;10.406;2023-11-18T05:51:18;10.50;;;9.50;;
2658;SDS011;1339;53.304;10.406;2023-11-18T05:53:45;8.75;;;7.63;;
2658;SDS011;1339;53.304;10.406;2023-11-18T05:56:12;10.10;;;8.65;;
2658;SDS011;1339;53.304;10.406;2023-11-18T05:58:39;9.80;;;8.05;;
2658;SDS011;1339;53.304;10.406;2023-11-18T06:01:08;7.97;;;7.18;;
2658;SDS011;1339;53.304;10.406;2023-11-18T06:03:36;10.00;;;8.50;;
2658;SDS011;1339;53.304;10.406;2023-11-18T06:06:06;9.57;;;8.57;;
2658;SDS011;1339;53.304;10.406;2023-11-18T06:08:34;10.55;;;8.00;;
2658;SDS011;1339;53.304;10.406;2023-11-18T06:11:02;8.13;;;7.28;;
2658;SDS011;1339;53.304;10.406;2023-11-18T06:13:37;9.85;;;8.20;;
2658;SDS011;1339;53.304;10.406;2023-11-18T06:16:07;12.70;;;9.80;;
2658;SDS011;1339;53.304;10.406;2023-11-18T06:18:34;10.48;;;8.85;;
2658;SDS011;1339;53.304;10.406;2023-11-18T06:21:02;9.40;;;7.50;;
2658;SDS011;1339;53.304;10.406;2023-11-18T06:23:29;11.60;;;8.40;;
2658;SDS011;1339;53.304;10.406;2023-11-18T06:25:59;11.52;;;8.45;;
2658;SDS011;1339;53.304;10.406;2023-11-18T06:28:26;10.55;;;8.20;;
2658;SDS011;1339;53.304;10.406;2023-11-18T06:30:54;9.45;;;8.43;;
2658;SDS011;1339;53.304;10.406;2023-11-18T06:33:21;8.32;;;7.38;;
2658;SDS011;1339;53.304;10.406;2023-11-18T06:35:51;8.80;;;7.20;;
2658;SDS011;1339;53.304;10.406;2023-11-18T06:38:19;13.32;;;8.60;;
2658;SDS011;1339;53.304;10.406;2023-11-18T06:40:46;10.55;;;8.18;;
2658;SDS011;1339;53.304;10.406;2023-11-18T06:43:18;9.88;;;8.30;;
2658;SDS011;1339;53.304;10.406;2023-11-18T06:45:45;8.50;;;6.93;;
2658;SDS011;1339;53.304;10.406;2023-11-18T06:48:13;10.15;;;7.18;;
2658;SDS011;1339;53.304;10.406;2023-11-18T06:50:44;8.75;;;7.45;;
2658;SDS011;1339;53.304;10.406;2023-11-18T06:53:12;9.70;;;7.03;;
2658;SDS011;1339;53.304;10.406;2023-11-18T06:55:40;7.57;;;6.25;;
2658;SDS011;1339;53.304;10.406;2023-11-18T06:58:07;9.32;;;7.63;;
2658;SDS011;1339;53.304;10.406;2023-11-18T07:00:35;9.30;;;6.93;;
2658;SDS011;1339;53.304;10.406;2023-11-18T07:03:03;9.73;;;7.38;;
2658;SDS011;1339;53.304;10.406;2023-11-18T07:05:31;8.32;;;6.80;;
2658;SDS011;1339;53.304;10.406;2023-11-18T07:07:58;10.60;;;7.30;;
2658;SDS011;1339;53.304;10.406;2023-11-18T07:10:25;9.05;;;8.15;;
2658;SDS011;1339;53.304;10.406;2023-11-18T07:12:52;10.82;;;8.95;;
2658;SDS011;1339;53.304;10.406;2023-11-18T07:15:19;10.80;;;8.32;;
2658;SDS011;1339;53.304;10.406;2023-11-18T07:17:48;8.90;;;6.95;;
2658;SDS011;1339;53.304;10.406;2023-11-18T07:20:16;11.10;;;7.65;;
2658;SDS011;1339;53.304;10.406;2023-11-18T07:22:43;9.85;;;8.02;;
2658;SDS011;1339;53.304;10.406;2023-11-18T07:25:10;9.85;;;7.57;;
2658;SDS011;1339;53.304;10.406;2023-11-18T07:27:37;13.50;;;8.30;;
2658;SDS011;1339;53.304;10.406;2023-11-18T07:30:05;9.85;;;8.77;;
2658;SDS011;1339;53.304;10.406;2023-11-18T07:32:33;10.25;;;8.05;;
2658;SDS011;1339;53.304;10.406;2023-11-18T07:35:02;9.80;;;8.27;;
2658;SDS011;1339;53.304;10.406;2023-11-18T07:37:33;9.38;;;7.30;;
2658;SDS011;1339;53.304;10.406;2023-11-18T07:40:02;9.05;;;8.02;;
2658;SDS011;1339;53.304;10.406;2023-11-18T07:42:30;10.88;;;8.73;;
2658;SDS011;1339;53.304;10.406;2023-11-18T07:44:59;10.40;;;8.73;;
2658;SDS011;1339;53.304;10.406;2023-11-18T07:47:28;9.60;;;7.53;;
2658;SDS011;1339;53.304;10.406;2023-11-18T07:49:56;10.73;;;8.73;;
2658;SDS011;1339;53.304;10.406;2023-11-18T07:52:25;15.93;;;7.78;;
2658;SDS011;1339;53.304;10.406;2023-11-18T07:54:54;10.02;;;7.82;;
2658;SDS011;1339;53.304;10.406;2023-11-18T07:57:21;10.10;;;7.90;;
2658;SDS011;1339;53.304;10.406;2023-11-18T07:59:49;10.60;;;8.55;;
2658;SDS011;1339;53.304;10.406;2023-11-18T08:02:17;11.80;;;7.70;;
2658;SDS011;1339;53.304;10.406;2023-11-18T08:04:45;11.50;;;8.75;;
2658;SDS011;1339;53.304;10.406;2023-11-18T08:07:12;10.73;;;8.60;;
2658;SDS011;1339;53.304;10.406;2023-11-18T08:09:40;12.00;;;7.63;;
2658;SDS011;1339;53.304;10.406;2023-11-18T08:12:08;9.80;;;7.70;;
2658;SDS011;1339;53.304;10.406;2023-11-18T08:14:35;10.90;;;8.52;;
2658;SDS011;1339;53.304;10.406;2023-11-18T08:17:03;10.32;;;9.13;;
2658;SDS011;1339;53.304;10.406;2023-11-18T08:19:31;9.48;;;8.48;;
2658;SDS011;1339;53.304;10.406;2023-11-18T08:21:59;10.90;;;7.97;;
2658;SDS011;1339;53.304;10.406;2023-11-18T08:24:26;8.40;;;7.03;;
2658;SDS011;1339;53.304;10.406;2023-11-18T08:26:55;7.70;;;6.90;;
2658;SDS011;1339;53.304;10.406;2023-11-18T08:29:22;11.70;;;9.00;;
2658;SDS011;1339;53.304;10.406;2023-11-18T08:31:56;12.32;;;8.32;;
2658;SDS011;1339;53.304;10.406;2023-11-18T08:34:23;9.05;;;8.10;;
2658;SDS011;1339;53.304;10.406;2023-11-18T08:36:51;10.93;;;8.63;;
2658;SDS011;1339;53.304;10.406;2023-11-18T08:39:18;15.30;;;9.25;;
2658;SDS011;1339;53.304;10.406;2023-11-18T08:41:45;11.32;;;8.50;;
2658;SDS011;1339;53.304;10.406;2023-11-18T08:44:15;12.90;;;9.65;;
2658;SDS011;1339;53.304;10.406;2023-11-18T08:46:42;13.65;;;10.77;;
2658;SDS011;1339;53.304;10.406;2023-11-18T08:49:09;11.73;;;9.68;;
2658;SDS011;1339;53.304;10.406;2023-11-18T08:51:36;12.35;;;9.35;;
2658;SDS011;1339;53.304;10.406;2023-11-18T08:54:06;12.50;;;9.02;;
2658;SDS011;1339;53.304;10.406;2023-11-18T08:56:47;12.68;;;10.75;;
2658;SDS011;1339;53.304;10.406;2023-11-18T08:59:17;12.90;;;11.18;;
2658;SDS011;1339;53.304;10.406;2023-11-18T09:01:45;11.65;;;10.40;;
2658;SDS011;1339;53.304;10.406;2023-11-18T09:04:14;9.93;;;8.90;;
2658;SDS011;1339;53.304;10.406;2023-11-18T09:06:44;11.52;;;8.85;;
2658;SDS011;1339;53.304;10.406;2023-11-18T09:09:13;10.52;;;9.02;;
2658;SDS011;1339;53.304;10.406;2023-11-18T09:11:40;10.73;;;8.65;;
2658;SDS011;1339;53.304;10.406;2023-11-18T09:14:08;12.35;;;8.75;;
2658;SDS011;1339;53.304;10.406;2023-11-18T09:16:37;8.90;;;8.00;;
2658;SDS011;1339;53.304;10.406;2023-11-18T09:19:08;10.18;;;7.80;;
2658;SDS011;1339;53.304;10.406;2023-11-18T09:21:35;8.88;;;7.97;;
2658;SDS011;1339;53.304;10.406;2023-11-18T09:24:03;8.63;;;7.72;;
2658;SDS011;1339;53.304;10.406;2023-11-18T09:26:33;11.13;;;9.30;;
2658;SDS011;1339;53.304;10.406;2023-11-18T09:29:00;11.93;;;8.95;;
2658;SDS011;1339;53.304;10.406;2023-11-18T09:31:27;11.55;;;8.20;;
2658;SDS011;1339;53.304;10.406;2023-11-18T09:33:57;8.68;;;7.70;;
2658;SDS011;1339;53.304;10.406;2023-11-18T09:36:25;10.95;;;8.20;;
2658;SDS011;1339;53.304;10.406;2023-11-18T09:38:53;8.55;;;6.32;;
2658;SDS011;1339;53.304;10.406;2023-11-18T09:41:22;9.02;;;7.72;;
2658;SDS011;1339;53.304;10.406;2023-11-18T09:43:51;9.02;;;6.97;;
2658;SDS011;1339;53.304;10.406;2023-11-18T09:46:22;10.93;;;7.82;;
2658;SDS011;1339;53.304;10.406;2023-11-18T09:48:50;10.60;;;7.50;;
2658;SDS011;1339;53.304;10.406;2023-11-18T09:51:20;8.55;;;6.70;;
2658;SDS011;1339;53.304;10.406;2023-11-18T09:53:49;9.73;;;7.00;;
2658;SDS011;1339;53.304;10.406;2023-11-18T09:56:18;7.93;;;7.22;;
2658;SDS011;1339;53.304;10.406;2023-11-18T09:58:54;8.27;;;6.57;;
2658;SDS011;1339;53.304;10.406;2023-11-18T10:01:24;7.40;;;6.50;;
2658;SDS011;1339;53.304;10.406;2023-11-18T10:03:57;7.80;;;7.00;;
2658;SDS011;1339;53.304;10.406;2023-11-18T10:06:26;9.05;;;6.25;;
2658;SDS011;1339;53.304;10.406;2023-11-18T10:08:59;7.15;;;5.00;;
2658;SDS011;1339;53.304;10.406;2023-11-18T10:11:40;6.88;;;5.78;;
2658;SDS011;1339;53.304;10.406;2023-11-18T10:14:07;5.35;;;4.82;;
2658;SDS011;1339;53.304;10.406;2023-11-18T10:16:36;6.53;;;5.53;;
2658;SDS011;1339;53.304;10.406;2023-11-18T10:19:03;6.30;;;4.40;;
2658;SDS011;1339;53.304;10.406;2023-11-18T10:21:35;6.15;;;5.55;;
2658;SDS011;1339;53.304;10.406;2023-11-18T10:24:04;7.72;;;4.80;;
2658;SDS011;1339;53.304;10.406;2023-11-18T10:26:37;6.20;;;4.90;;
2658;SDS011;1339;53.304;10.406;2023-11-18T10:29:04;9.07;;;4.20;;
2658;SDS011;1339;53.304;10.406;2023-11-18T10:31:32;5.00;;;4.32;;
2658;SDS011;1339;53.304;10.406;2023-11-18T10:34:01;3.83;;;3.53;;
2658;SDS011;1339;53.304;10.406;2023-11-18T10:36:29;4.40;;;3.80;;
2658;SDS011;1339;53.304;10.406;2023-11-18T10:38:59;5.05;;;3.13;;
2658;SDS011;1339;53.304;10.406;2023-11-18T10:41:39;3.40;;;3.03;;
2658;SDS011;1339;53.304;10.406;2023-11-18T10:44:08;2.10;;;2.00;;
2658;SDS011;1339;53.304;10.406;2023-11-18T10:46:39;2.70;;;2.50;;
2658;SDS011;1339;53.304;10.406;2023-11-18T10:49:06;2.60;;;2.40;;
2658;SDS011;1339;53.304;10.406;2023-11-18T10:51:35;2.85;;;2.53;;
2658;SDS011;1339;53.304;10.406;2023-11-18T10:54:05;3.65;;;2.10;;
2658;SDS011;1339;53.304;10.406;2023-11-18T10:56:45;2.38;;;2.17;;
2658;SDS011;1339;53.304;10.406;2023-11-18T10:59:12;5.05;;;2.38;;
2658;SDS011;1339;53.304;10.406;2023-11-18T11:01:41;2.00;;;1.90;;
2658;SDS011;1339;53.304;10.406;2023-11-18T11:04:08;3.85;;;2.65;;
2658;SDS011;1339;53.304;10.406;2023-11-18T11:06:42;2.75;;;2.47;;
2658;SDS011;1339;53.304;10.406;2023-11-18T11:09:12;2.30;;;2.10;;
2658;SDS011;1339;53.304;10.406;2023-11-18T11:11:44;1.95;;;1.85;;
2658;SDS011;1339;53.304;10.406;2023-11-18T11:14:13;2.42;;;1.98;;
2658;SDS011;1339;53.304;10.406;2023-11-18T11:16:42;2.15;;;2.05;;
2658;SDS011;1339;53.304;10.406;2023-11-18T11:19:15;2.95;;;2.65;;
2658;SDS011;1339;53.304;10.406;2023-11-18T11:21:49;3.13;;;2.42;;
2658;SDS011;1339;53.304;10.406;2023-11-18T11:24:20;4.20;;;2.80;;
2658;SDS011;1339;53.304;10.406;2023-11-18T11:26:50;3.70;;;3.40;;
2658;SDS011;1339;53.304;10.406;2023-11-18T11:29:25;3.50;;;2.90;;
2658;SDS011;1339;53.304;10.406;2023-11-18T11:31:55;2.40;;;2.20;;
2658;SDS011;1339;53.304;10.406;2023-11-18T11:34:26;3.78;;;2.58;;
2658;SDS011;1339;53.304;10.406;2023-11-18T11:36:56;3.40;;;3.10;;
2658;SDS011;1339;53.304;10.406;2023-11-18T11:39:27;3.17;;;2.90;;
2658;SDS011;1339;53.304;10.406;2023-11-18T11:41:56;5.35;;;3.35;;
2658;SDS011;1339;53.304;10.406;2023-11-18T11:44:24;3.60;;;3.30;;
2658;SDS011;1339;53.304;10.406;2023-11-18T11:46:54;3.53;;;3.22;;
2658;SDS011;1339;53.304;10.406;2023-11-18T11:49:22;5.40;;;4.20;;
2658;SDS011;1339;53.304;10.406;2023-11-18T11:51:55;3.80;;;3.40;;
2658;SDS011;1339;53.304;10.406;2023-11-18T11:54:25;3.53;;;3.22;;
2658;SDS011;1339;53.304;10.406;2023-11-18T11:56:55;4.63;;;4.22;;
2658;SDS011;1339;53.304;10.406;2023-11-18T11:59:34;4.60;;;4.20;;
2658;SDS011;1339;53.304;10.406;2023-11-18T12:02:03;3.83;;;3.53;;
2658;SDS011;1339;53.304;10.406;2023-11-18T12:04:34;4.47;;;4.05;;
2658;SDS011;1339;53.304;10.406;2023-11-18T12:07:03;4.25;;;3.85;;
2658;SDS011;1339;53.304;10.406;2023-11-18T12:09:31;5.78;;;3.75;;
2658;SDS011;1339;53.304;10.406;2023-11-18T12:12:04;5.50;;;4.57;;
2658;SDS011;1339;53.304;10.406;2023-11-18T12:14:48;4.03;;;3.63;;
2658;SDS011;1339;53.304;10.406;2023-11-18T12:17:15;4.88;;;4.40;;
2658;SDS011;1339;53.304;10.406;2023-11-18T12:19:47;3.90;;;2.75;;
2658;SDS011;1339;53.304;10.406;2023-11-18T12:22:13;4.15;;;3.15;;
2658;SDS011;1339;53.304;10.406;2023-11-18T12:24:45;3.25;;;2.95;;
2658;SDS011;1339;53.304;10.406;2023-11-18T12:30:01;3.42;;;3.13;;
2658;SDS011;1339;53.304;10.406;2023-11-18T12:35:17;3.15;;;2.50;;
2658;SDS011;1339;53.304;10.406;2023-11-18T12:37:54;2.75;;;2.53;;
2658;SDS011;1339;53.304;10.406;2023-11-18T12:40:36;4.93;;;3.65;;
2658;SDS011;1339;53.304;10.406;2023-11-18T12:43:11;2.42;;;2.20;;
2658;SDS011;1339;53.304;10.406;2023-11-18T12:45:50;2.60;;;2.40;;
2658;SDS011;1339;53.304;10.406;2023-11-18T12:48:30;2.95;;;2.55;;
2658;SDS011;1339;53.304;10.406;2023-11-18T12:50:57;2.08;;;1.98;;
2658;SDS011;1339;53.304;10.406;2023-11-18T12:53:25;2.58;;;2.38;;
2658;SDS011;1339;53.304;10.406;2023-11-18T12:55:53;2.50;;;2.30;;
2658;SDS011;1339;53.304;10.406;2023-11-18T12:58:20;2.80;;;2.10;;
2658;SDS011;1339;53.304;10.406;2023-11-18T13:00:49;2.97;;;2.67;;
2658;SDS011;1339;53.304;10.406;2023-11-18T13:03:16;3.08;;;2.78;;
2658;SDS011;1339;53.304;10.406;2023-11-18T13:05:45;3.15;;;1.90;;
2658;SDS011;1339;53.304;10.406;2023-11-18T13:08:13;4.35;;;2.60;;
2658;SDS011;1339;53.304;10.406;2023-11-18T13:10:41;2.50;;;2.30;;
2658;SDS011;1339;53.304;10.406;2023-11-18T13:15:38;2.30;;;2.10;;
2658;SDS011;1339;53.304;10.406;2023-11-18T13:18:07;2.30;;;2.10;;
2658;SDS011;1339;53.304;10.406;2023-11-18T13:20:36;2.90;;;2.58;;
2658;SDS011;1339;53.304;10.406;2023-11-18T13:23:04;2.47;;;2.28;;
2658;SDS011;1339;53.304;10.406;2023-11-18T13:25:33;2.08;;;1.88;;
2658;SDS011;1339;53.304;10.406;2023-11-18T13:28:01;2.08;;;1.80;;
2658;SDS011;1339;53.304;10.406;2023-11-18T13:30:30;2.53;;;2.20;;
2658;SDS011;1339;53.304;10.406;2023-11-18T13:32:57;2.28;;;2.13;;
2658;SDS011;1339;53.304;10.406;2023-11-18T13:35:26;2.88;;;2.45;;
2658;SDS011;1339;53.304;10.406;2023-11-18T13:37:53;3.13;;;2.78;;
2658;SDS011;1339;53.304;10.406;2023-11-18T13:40:21;2.80;;;2.60;;
2658;SDS011;1339;53.304;10.406;2023-11-18T13:42:53;3.88;;;1.92;;
2658;SDS011;1339;53.304;10.406;2023-11-18T13:45:28;2.35;;;2.15;;
2658;SDS011;1339;53.304;10.406;2023-11-18T13:47:55;2.58;;;2.38;;
2658;SDS011;1339;53.304;10.406;2023-11-18T13:50:23;2.92;;;2.50;;
2658;SDS011;1339;53.304;10.406;2023-11-18T13:52:51;2.95;;;2.65;;
2658;SDS011;1339;53.304;10.406;2023-11-18T13:55:18;4.70;;;4.10;;
2658;SDS011;1339;53.304;10.406;2023-11-18T13:57:51;3.42;;;3.10;;
2658;SDS011;1339;53.304;10.406;2023-11-18T14:00:19;5.78;;;3.67;;
2658;SDS011;1339;53.304;10.406;2023-11-18T14:02:48;3.00;;;2.80;;
2658;SDS011;1339;53.304;10.406;2023-11-18T14:05:16;3.88;;;3.58;;
2658;SDS011;1339;53.304;10.406;2023-11-18T14:07:45;3.90;;;3.50;;
2658;SDS011;1339;53.304;10.406;2023-11-18T14:10:14;5.25;;;3.63;;
2658;SDS011;1339;53.304;10.406;2023-11-18T14:12:57;8.07;;;4.45;;
2658;SDS011;1339;53.304;10.406;2023-11-18T14:15:24;5.30;;;4.85;;
2658;SDS011;1339;53.304;10.406;2023-11-18T14:17:51;4.78;;;4.22;;
2658;SDS011;1339;53.304;10.406;2023-11-18T14:20:19;6.57;;;4.80;;
2658;SDS011;1339;53.304;10.406;2023-11-18T14:22:47;5.13;;;4.72;;
2658;SDS011;1339;53.304;10.406;2023-11-18T14:25:15;5.65;;;5.15;;
2658;SDS011;1339;53.304;10.406;2023-11-18T14:27:43;8.15;;;6.15;;
2658;SDS011;1339;53.304;10.406;2023-11-18T14:30:11;6.03;;;5.32;;
2658;SDS011;1339;53.304;10.406;2023-11-18T14:32:38;6.60;;;5.40;;
2658;SDS011;1339;53.304;10.406;2023-11-18T14:35:05;6.15;;;5.68;;
2658;SDS011;1339;53.304;10.406;2023-11-18T14:37:37;5.30;;;4.80;;
2658;SDS011;1339;53.304;10.406;2023-11-18T14:40:07;5.07;;;4.55;;
2658;SDS011;1339;53.304;10.406;2023-11-18T14:42:36;5.45;;;4.95;;
2658;SDS011;1339;53.304;10.406;2023-11-18T14:45:03;5.07;;;4.55;;
2658;SDS011;1339;53.304;10.406;2023-11-18T14:47:31;5.68;;;4.70;;
2658;SDS011;1339;53.304;10.406;2023-11-18T14:49:59;5.20;;;4.25;;
2658;SDS011;1339;53.304;10.406;2023-11-18T14:52:27;4.85;;;4.35;;
2658;SDS011;1339;53.304;10.406;2023-11-18T14:54:54;5.80;;;4.70;;
2658;SDS011;1339;53.304;10.406;2023-11-18T14:57:21;5.82;;;5.03;;
2658;SDS011;1339;53.304;10.406;2023-11-18T14:59:50;5.25;;;4.72;;
2658;SDS011;1339;53.304;10.406;2023-11-18T15:02:17;4.28;;;3.92;;
2658;SDS011;1339;53.304;10.406;2023-11-18T15:04:44;4.40;;;4.00;;
2658;SDS011;1339;53.304;10.406;2023-11-18T15:07:11;4.68;;;3.70;;
2658;SDS011;1339;53.304;10.406;2023-11-18T15:09:38;4.05;;;3.72;;
2658;SDS011;1339;53.304;10.406;2023-11-18T15:12:07;4.30;;;3.90;;